Time;durP1;ratioP1;P1;durP2;ratioP2;P2;SDS_P1;SDS_P2;PMS_P1;PMS_P2;Temp;Humidity;BMP_temperature;BMP_pressure;BME280_temperature;BME280_humidity;BME280_pressure;Samples;Min_cycle;Max_cycle;Signal;HPM_P1;HPM_P2
2021/03/19 00:00:43;;;;;;;;;;;20.10;99.90;;;;;;5009967;28;19913;-81
2021/03/19 00:03:10;;;;;;;;;;;20.20;99.90;;;;;;5010206;28;20491;-80
2021/03/19 00:05:37;;;;;;;;;;;20.30;99.90;;;;;;5010351;28;19909;-82
2021/03/19 00:08:05;;;;;;;;;;;20.40;99.90;;;;;;5008686;28;19993;-83
2021/03/19 00:10:33;;;;;;;;;;;20.50;99.90;;;;;;5010108;28;19921;-84
2021/03/19 00:13:09;;;;;;;;;;;20.50;99.90;;;;;;4993973;28;19918;-84
2021/03/19 00:15:46;;;;;;;;;;;20.60;99.90;;;;;;5011382;28;19925;-83
2021/03/19 00:18:14;;;;;;;;;;;20.70;99.90;;;;;;4994377;28;20012;-87
2021/03/19 00:20:45;;;;;;;;;;;20.70;99.90;;;;;;4999449;28;19921;-86
2021/03/19 00:23:35;;;;;;;;;;;20.80;99.90;;;;;;4959593;28;19961;-86
2021/03/19 00:26:26;;;;;;;;;;;20.80;99.90;;;;;;4959308;28;19915;-83
2021/03/19 00:29:12;;;;;;;;;;;20.80;99.90;;;;;;5067771;28;19915;-84
2021/03/19 00:31:41;;;;;;;;;;;20.80;99.90;;;;;;5019366;28;20467;-87
2021/03/19 00:34:08;;;;;;;;;;;20.80;99.90;;;;;;4978744;28;19922;-85
2021/03/19 00:36:34;;;;;;;;;;;20.90;99.90;;;;;;4943185;28;19922;-84
2021/03/19 00:39:01;;;;;;;;;;;20.90;99.90;;;;;;4963481;28;20009;-86
2021/03/19 00:41:28;;;;;;;;;;;20.90;99.90;;;;;;4967403;28;19936;-87
2021/03/19 00:43:55;;;;;;;;;;;21.00;99.90;;;;;;4974023;28;19950;-86
2021/03/19 00:46:22;;;;;;;;;;;21.10;99.90;;;;;;4968444;28;19914;-82
2021/03/19 00:48:49;;;;;;;;;;;21.20;99.90;;;;;;4969549;28;20013;-87
2021/03/19 00:51:16;;;;;;;;;;;21.30;99.90;;;;;;4968795;28;19921;-85
2021/03/19 00:53:45;;;;;;;;;;;21.50;99.90;;;;;;4968061;28;20387;-86
2021/03/19 00:56:12;;;;;;;;;;;21.60;99.90;;;;;;4964815;28;19918;-82
2021/03/19 00:58:39;;;;;;;;;;;21.80;99.90;;;;;;4974161;28;19949;-84
2021/03/19 01:01:06;;;;;;;;;;;21.90;99.90;;;;;;4977937;28;19910;-78
2021/03/19 01:03:32;;;;;;;;;;;22.00;99.90;;;;;;4982472;28;19918;-81
2021/03/19 01:06:00;;;;;;;;;;;22.10;99.90;;;;;;4967364;28;19914;-85
2021/03/19 01:08:30;;;;;;;;;;;22.10;99.90;;;;;;4969861;28;21230;-82
2021/03/19 01:11:00;;;;;;;;;;;22.20;99.90;;;;;;4970306;28;19915;-85
2021/03/19 01:13:27;;;;;;;;;;;22.20;99.90;;;;;;4971353;28;20307;-83
2021/03/19 01:15:55;;;;;;;;;;;22.10;99.90;;;;;;4953719;28;19957;-83
2021/03/19 01:18:44;;;;;;;;;;;22.10;99.90;;;;;;4963820;28;19914;-84
2021/03/19 01:21:12;;;;;;;;;;;22.10;99.90;;;;;;4954847;28;19921;-84
2021/03/19 01:23:45;;;;;;;;;;;22.10;99.90;;;;;;5007394;28;19925;-81
2021/03/19 01:26:14;;;;;;;;;;;22.10;99.90;;;;;;4997440;28;19959;-84
2021/03/19 01:28:41;;;;;;;;;;;22.10;99.90;;;;;;5007598;28;20291;-81
2021/03/19 01:31:31;;;;;;;;;;;22.20;99.90;;;;;;5011169;28;19917;-83
2021/03/19 01:34:02;;;;;;;;;;;22.20;99.90;;;;;;5010258;28;20307;-84
2021/03/19 01:36:37;;;;;;;;;;;22.30;99.90;;;;;;4994888;28;19953;-81
2021/03/19 01:39:04;;;;;;;;;;;22.50;99.90;;;;;;5009279;28;19967;-80
2021/03/19 01:41:31;;;;;;;;;;;22.80;99.90;;;;;;4995957;28;19981;-80
2021/03/19 01:44:02;;;;;;;;;;;23.10;99.90;;;;;;5007412;28;19941;-81
2021/03/19 01:46:47;;;;;;;;;;;23.20;99.90;;;;;;5013404;28;20376;-81
2021/03/19 01:49:39;;;;;;;;;;;23.30;99.90;;;;;;5009673;28;20275;-81
2021/03/19 01:52:28;;;;;;;;;;;23.30;99.90;;;;;;5004753;28;20386;-80
2021/03/19 01:55:14;;;;;;;;;;;23.30;99.90;;;;;;5000063;28;19974;-80
2021/03/19 01:58:02;;;;;;;;;;;23.30;99.90;;;;;;4995791;28;20004;-85
2021/03/19 02:00:47;;;;;;;;;;;23.20;99.90;;;;;;5034830;28;19913;-83
2021/03/19 02:03:36;;;;;;;;;;;23.20;99.90;;;;;;5018963;28;19928;-84
2021/03/19 02:06:21;;;;;;;;;;;23.20;99.90;;;;;;5012170;28;19909;-84
2021/03/19 02:09:06;;;;;;;;;;;23.20;99.90;;;;;;5009514;28;19913;-82
2021/03/19 02:11:54;;;;;;;;;;;23.20;99.90;;;;;;5000172;28;19917;-82
2021/03/19 02:14:38;;;;;;;;;;;23.30;99.90;;;;;;5005386;28;19917;-83
2021/03/19 02:17:23;;;;;;;;;;;23.20;99.90;;;;;;5011718;28;19913;-83
2021/03/19 02:20:08;;;;;;;;;;;23.20;99.90;;;;;;5007795;28;19918;-84
2021/03/19 02:22:58;;;;;;;;;;;23.10;99.90;;;;;;5011279;28;19926;-83
2021/03/19 02:25:45;;;;;;;;;;;23.10;99.90;;;;;;5014029;28;20020;-83
2021/03/19 02:28:30;;;;;;;;;;;23.10;99.90;;;;;;5095753;28;20386;-84
2021/03/19 02:31:12;;;;;;;;;;;23.00;99.90;;;;;;5012477;28;19918;-82
2021/03/19 02:33:43;;;;;;;;;;;22.90;99.90;;;;;;5011067;28;19959;-83
2021/03/19 02:36:10;;;;;;;;;;;23.00;99.90;;;;;;4998354;28;19929;-82
2021/03/19 02:38:37;;;;;;;;;;;23.10;99.90;;;;;;5009953;28;19985;-83
2021/03/19 02:41:04;;;;;;;;;;;23.20;99.90;;;;;;5011760;28;19936;-82
2021/03/19 02:43:35;;;;;;;;;;;23.40;99.90;;;;;;5016503;28;19922;-82
2021/03/19 02:46:03;;;;;;;;;;;23.40;99.90;;;;;;5013785;28;19918;-82
2021/03/19 02:48:32;;;;;;;;;;;23.70;99.90;;;;;;4996555;28;19971;-82
2021/03/19 02:50:59;;;;;;;;;;;23.70;99.90;;;;;;5011888;28;20357;-83
2021/03/19 02:53:27;;;;;;;;;;;23.70;99.90;;;;;;5011936;28;19920;-81
2021/03/19 02:55:55;;;;;;;;;;;23.90;99.90;;;;;;4985546;28;19925;-82
2021/03/19 02:58:22;;;;;;;;;;;23.80;99.90;;;;;;4995507;28;19913;-82
2021/03/19 03:00:49;;;;;;;;;;;23.40;99.90;;;;;;5012727;28;19914;-82
2021/03/19 03:03:18;;;;;;;;;;;23.20;99.90;;;;;;5050212;28;20358;-84
2021/03/19 03:05:45;;;;;;;;;;;23.00;99.90;;;;;;5008984;28;19918;-81
2021/03/19 03:08:14;;;;;;;;;;;22.90;99.90;;;;;;4999681;28;20443;-82
2021/03/19 03:10:41;;;;;;;;;;;22.80;99.90;;;;;;5010978;28;19924;-82
2021/03/19 03:13:08;;;;;;;;;;;22.80;99.90;;;;;;5011534;28;19913;-82
2021/03/19 03:15:42;;;;;;;;;;;22.80;99.90;;;;;;5010773;28;20502;-82
2021/03/19 03:18:09;;;;;;;;;;;22.80;99.90;;;;;;5010065;28;19932;-83
2021/03/19 03:20:44;;;;;;;;;;;22.70;99.90;;;;;;5010506;28;19985;-81
2021/03/19 03:23:11;;;;;;;;;;;22.50;99.90;;;;;;4976217;28;19952;-81
2021/03/19 03:25:38;;;;;;;;;;;22.50;99.90;;;;;;5009432;28;19914;-81
2021/03/19 03:28:07;;;;;;;;;;;22.40;99.90;;;;;;5008769;28;19930;-82
2021/03/19 03:30:35;;;;;;;;;;;22.40;99.90;;;;;;4982254;28;20306;-83
2021/03/19 03:33:03;;;;;;;;;;;22.40;99.90;;;;;;5007162;28;19913;-81
2021/03/19 03:35:30;;;;;;;;;;;22.30;99.90;;;;;;5013376;28;19948;-82
2021/03/19 03:37:57;;;;;;;;;;;22.20;99.90;;;;;;5004959;28;19957;-82
2021/03/19 03:40:32;;;;;;;;;;;22.20;99.90;;;;;;5019425;28;19920;-83
2021/03/19 03:42:59;;;;;;;;;;;22.20;99.90;;;;;;5025632;28;19917;-82
2021/03/19 03:45:25;;;;;;;;;;;22.30;99.90;;;;;;5009807;28;20008;-82
2021/03/19 03:47:52;;;;;;;;;;;22.30;99.90;;;;;;5010169;28;19914;-81
2021/03/19 03:50:20;;;;;;;;;;;22.40;99.90;;;;;;4999714;28;19914;-81
2021/03/19 03:52:46;;;;;;;;;;;22.50;99.90;;;;;;5010025;28;19953;-81
2021/03/19 03:55:13;;;;;;;;;;;22.60;99.90;;;;;;5028930;28;19934;-80
2021/03/19 03:57:40;;;;;;;;;;;22.60;99.90;;;;;;5111222;28;20733;-81
2021/03/19 04:00:08;;;;;;;;;;;22.60;99.90;;;;;;5018470;28;19922;-82
2021/03/19 04:02:35;;;;;;;;;;;22.70;99.90;;;;;;4996409;28;19922;-82
2021/03/19 04:05:03;;;;;;;;;;;22.70;99.90;;;;;;5018313;28;19910;-82
2021/03/19 04:07:29;;;;;;;;;;;22.70;99.90;;;;;;5032398;28;19905;-82
2021/03/19 04:09:56;;;;;;;;;;;22.70;99.90;;;;;;5010801;28;20260;-81
2021/03/19 04:12:23;;;;;;;;;;;22.70;99.90;;;;;;5011248;28;19922;-82
2021/03/19 04:14:51;;;;;;;;;;;22.60;99.90;;;;;;5011973;28;20256;-81
2021/03/19 04:17:36;;;;;;;;;;;22.70;99.90;;;;;;5010792;28;19913;-81
2021/03/19 04:20:06;;;;;;;;;;;22.80;99.90;;;;;;5084091;28;19957;-82
2021/03/19 04:22:32;;;;;;;;;;;22.90;99.90;;;;;;5008163;28;19926;-81
2021/03/19 04:25:02;;;;;;;;;;;22.90;99.90;;;;;;5009123;28;19921;-81
2021/03/19 04:27:31;;;;;;;;;;;23.00;99.90;;;;;;5007286;28;19914;-81
2021/03/19 04:29:58;;;;;;;;;;;23.00;99.90;;;;;;4992887;28;19917;-82
2021/03/19 04:32:27;;;;;;;;;;;23.00;99.90;;;;;;5010198;28;19917;-82
2021/03/19 04:34:54;;;;;;;;;;;23.00;99.90;;;;;;5010723;28;20359;-81
2021/03/19 04:37:20;;;;;;;;;;;23.00;99.90;;;;;;5010246;28;19973;-81
2021/03/19 04:39:48;;;;;;;;;;;22.90;99.90;;;;;;4992251;28;19914;-81
2021/03/19 04:42:15;;;;;;;;;;;22.80;99.90;;;;;;5009523;28;20327;-82
2021/03/19 04:44:44;;;;;;;;;;;22.70;99.90;;;;;;4992774;28;19913;-81
2021/03/19 04:47:12;;;;;;;;;;;22.70;99.90;;;;;;5009509;28;19913;-81
2021/03/19 04:49:40;;;;;;;;;;;22.70;99.90;;;;;;4992629;28;19910;-82
2021/03/19 04:52:07;;;;;;;;;;;22.70;99.90;;;;;;5014055;28;19909;-80
2021/03/19 04:54:34;;;;;;;;;;;22.60;99.90;;;;;;5013597;28;19931;-81
2021/03/19 04:57:01;;;;;;;;;;;22.70;99.90;;;;;;5010216;28;19910;-81
2021/03/19 04:59:28;;;;;;;;;;;22.70;99.90;;;;;;5010089;28;19909;-81
2021/03/19 05:01:56;;;;;;;;;;;22.60;99.90;;;;;;4992200;28;19926;-80
2021/03/19 05:04:23;;;;;;;;;;;22.60;99.90;;;;;;5009071;28;19957;-80
2021/03/19 05:06:52;;;;;;;;;;;22.60;99.90;;;;;;5005206;28;19920;-80
2021/03/19 05:09:23;;;;;;;;;;;22.60;99.90;;;;;;5009994;28;19963;-80
2021/03/19 05:11:50;;;;;;;;;;;22.60;99.90;;;;;;4995037;28;19910;-80
2021/03/19 05:14:20;;;;;;;;;;;22.50;99.90;;;;;;4996026;28;19963;-81
2021/03/19 05:16:48;;;;;;;;;;;22.50;99.90;;;;;;5012533;28;19937;-80
2021/03/19 05:19:15;;;;;;;;;;;22.50;99.90;;;;;;5014678;28;19924;-80
2021/03/19 05:21:42;;;;;;;;;;;22.50;99.90;;;;;;5003788;28;19922;-81
2021/03/19 05:24:09;;;;;;;;;;;22.50;99.90;;;;;;5009612;28;19913;-80
2021/03/19 05:26:39;;;;;;;;;;;22.40;99.90;;;;;;4997935;28;19928;-80
2021/03/19 05:29:06;;;;;;;;;;;22.40;99.90;;;;;;5018506;28;19909;-80
2021/03/19 05:31:33;;;;;;;;;;;22.40;99.90;;;;;;5009682;28;20271;-81
2021/03/19 05:34:00;;;;;;;;;;;22.40;99.90;;;;;;4991915;28;20322;-80
2021/03/19 05:36:30;;;;;;;;;;;22.30;99.90;;;;;;4998331;28;19917;-80
2021/03/19 05:39:00;;;;;;;;;;;22.30;99.90;;;;;;5007728;28;19918;-80
2021/03/19 05:41:28;;;;;;;;;;;22.30;99.90;;;;;;5007947;28;20332;-81
2021/03/19 05:43:56;;;;;;;;;;;22.30;99.90;;;;;;5008965;28;20259;-81
2021/03/19 05:46:44;;;;;;;;;;;22.30;99.90;;;;;;5008568;28;19935;-81
2021/03/19 05:49:11;;;;;;;;;;;22.30;99.90;;;;;;5009147;28;19920;-81
2021/03/19 05:51:50;;;;;;;;;;;22.40;99.90;;;;;;4987973;28;19914;-81
2021/03/19 05:54:22;;;;;;;;;;;22.40;99.90;;;;;;4985889;28;20383;-79
2021/03/19 05:57:08;;;;;;;;;;;22.40;99.90;;;;;;5010040;28;19917;-80
2021/03/19 05:59:39;;;;;;;;;;;22.40;99.90;;;;;;5014650;28;20279;-79
2021/03/19 06:02:29;;;;;;;;;;;22.40;99.90;;;;;;5009785;28;19924;-82
2021/03/19 06:05:34;;;;;;;;;;;22.40;99.90;;;;;;5017689;28;19986;-79
2021/03/19 06:08:07;;;;;;;;;;;22.40;99.90;;;;;;5052281;28;20631;-80
2021/03/19 06:10:35;;;;;;;;;;;22.40;99.90;;;;;;5066757;28;19912;-81
2021/03/19 06:13:22;;;;;;;;;;;22.40;99.90;;;;;;5037545;28;20443;-80
2021/03/19 06:16:07;;;;;;;;;;;22.30;99.90;;;;;;5009058;28;20437;-82
2021/03/19 06:18:39;;;;;;;;;;;22.40;99.90;;;;;;5079102;28;19913;-77
2021/03/19 06:21:06;;;;;;;;;;;22.40;99.90;;;;;;5006047;28;19944;-82
2021/03/19 06:23:33;;;;;;;;;;;22.40;99.90;;;;;;4994414;28;20380;-80
2021/03/19 06:26:17;;;;;;;;;;;22.40;99.90;;;;;;5007357;28;20260;-80
2021/03/19 06:28:46;;;;;;;;;;;22.40;99.90;;;;;;5009218;28;20401;-82
2021/03/19 06:31:16;;;;;;;;;;;22.40;99.90;;;;;;5008741;28;20390;-81
2021/03/19 06:33:43;;;;;;;;;;;22.30;99.90;;;;;;5009467;28;20276;-81
2021/03/19 06:36:14;;;;;;;;;;;22.30;99.90;;;;;;5008327;28;19921;-80
2021/03/19 06:38:42;;;;;;;;;;;22.30;99.90;;;;;;5002525;28;19914;-82
2021/03/19 06:41:20;;;;;;;;;;;22.20;99.90;;;;;;5006441;28;20712;-80
2021/03/19 06:43:48;;;;;;;;;;;22.30;99.90;;;;;;4996276;28;19921;-82
2021/03/19 06:46:24;;;;;;;;;;;22.20;99.90;;;;;;5007007;28;19924;-82
2021/03/19 06:48:54;;;;;;;;;;;22.20;99.90;;;;;;5008349;28;19985;-80
2021/03/19 06:51:23;;;;;;;;;;;22.10;99.90;;;;;;5006176;28;19910;-79
2021/03/19 06:54:10;;;;;;;;;;;22.10;99.90;;;;;;5010473;28;19910;-81
2021/03/19 06:56:39;;;;;;;;;;;22.10;99.90;;;;;;5009515;28;19918;-82
2021/03/19 06:59:21;;;;;;;;;;;22.00;99.90;;;;;;5018918;28;19914;-81
2021/03/19 07:01:48;;;;;;;;;;;22.00;99.90;;;;;;5051361;28;20004;-81
2021/03/19 07:04:33;;;;;;;;;;;22.00;99.90;;;;;;5061859;28;20425;-80
2021/03/19 07:07:05;;;;;;;;;;;22.00;99.90;;;;;;4990568;28;19970;-80
2021/03/19 07:09:58;;;;;;;;;;;22.00;99.90;;;;;;4998593;28;19909;-79
2021/03/19 07:12:43;;;;;;;;;;;22.00;99.90;;;;;;5014052;28;20464;-80
2021/03/19 07:15:16;;;;;;;;;;;21.90;99.90;;;;;;5030660;28;19913;-81
2021/03/19 07:17:54;;;;;;;;;;;22.00;99.90;;;;;;4993375;28;19918;-81
2021/03/19 07:20:28;;;;;;;;;;;22.00;99.90;;;;;;5006905;28;20344;-81
2021/03/19 07:22:57;;;;;;;;;;;21.90;99.90;;;;;;5006104;28;19930;-80
2021/03/19 07:25:29;;;;;;;;;;;21.90;99.90;;;;;;5008971;28;19917;-80
2021/03/19 07:28:14;;;;;;;;;;;21.90;99.90;;;;;;5010173;28;20429;-81
2021/03/19 07:31:00;;;;;;;;;;;21.90;99.90;;;;;;5079143;28;19921;-81
2021/03/19 07:33:33;;;;;;;;;;;21.90;99.90;;;;;;5089716;28;19922;-80
2021/03/19 07:36:18;;;;;;;;;;;21.90;99.90;;;;;;5008340;28;19921;-82
2021/03/19 07:38:45;;;;;;;;;;;21.90;99.90;;;;;;5011788;28;19913;-81
2021/03/19 07:41:22;;;;;;;;;;;21.90;99.90;;;;;;5014979;28;19909;-80
2021/03/19 07:43:48;;;;;;;;;;;21.90;99.90;;;;;;5086726;28;19921;-80
2021/03/19 07:46:20;;;;;;;;;;;21.90;99.90;;;;;;4996657;28;19918;-80
2021/03/19 07:49:05;;;;;;;;;;;21.90;99.90;;;;;;5013815;28;19914;-79
2021/03/19 07:51:33;;;;;;;;;;;21.80;99.90;;;;;;5011643;28;19959;-81
2021/03/19 07:54:05;;;;;;;;;;;21.80;99.90;;;;;;5007303;28;19920;-80
2021/03/19 07:56:59;;;;;;;;;;;21.70;99.90;;;;;;5010010;28;19913;-80
2021/03/19 07:59:29;;;;;;;;;;;21.70;99.90;;;;;;5007388;28;19917;-79
2021/03/19 08:02:02;;;;;;;;;;;21.60;99.90;;;;;;5009532;28;20298;-79
2021/03/19 08:04:43;;;;;;;;;;;21.60;99.90;;;;;;5000677;28;19976;-80
2021/03/19 08:07:26;;;;;;;;;;;21.50;99.90;;;;;;5008646;28;19961;-80
2021/03/19 08:09:58;;;;;;;;;;;21.50;99.90;;;;;;5015818;28;19902;-80
2021/03/19 08:12:48;;;;;;;;;;;21.50;99.90;;;;;;5020797;28;19921;-80
2021/03/19 08:15:15;;;;;;;;;;;21.50;99.90;;;;;;5011200;28;20030;-80
2021/03/19 08:17:47;;;;;;;;;;;21.50;99.90;;;;;;5010601;28;19921;-79
2021/03/19 08:20:15;;;;;;;;;;;21.50;99.90;;;;;;4992821;28;19979;-80
2021/03/19 08:22:47;;;;;;;;;;;21.50;99.90;;;;;;5010747;28;19921;-81
2021/03/19 08:25:25;;;;;;;;;;;21.40;99.90;;;;;;5010836;28;19914;-81
2021/03/19 08:27:54;;;;;;;;;;;21.40;99.90;;;;;;5007327;28;20012;-80
2021/03/19 08:30:53;;;;;;;;;;;21.30;99.90;;;;;;5006158;28;19970;-80
2021/03/19 08:33:20;;;;;;;;;;;21.20;99.90;;;;;;5025670;28;19919;-80
2021/03/19 08:35:53;;;;;;;;;;;21.10;99.90;;;;;;5009987;28;19917;-80
2021/03/19 08:38:49;;;;;;;;;;;21.10;99.90;;;;;;5009783;28;19909;-80
2021/03/19 08:41:20;;;;;;;;;;;21.10;99.90;;;;;;5022832;28;19918;-80
2021/03/19 08:43:49;;;;;;;;;;;21.00;99.90;;;;;;5012224;28;19981;-79
2021/03/19 08:46:16;;;;;;;;;;;21.00;99.90;;;;;;4995186;28;19958;-80
2021/03/19 08:48:49;;;;;;;;;;;21.00;99.90;;;;;;5008499;28;19933;-80
2021/03/19 08:51:36;;;;;;;;;;;21.00;99.90;;;;;;5010771;28;19959;-80
2021/03/19 08:54:18;;;;;;;;;;;21.00;99.90;;;;;;5010405;28;19974;-80
2021/03/19 08:56:49;;;;;;;;;;;21.00;99.90;;;;;;5004957;28;19921;-81
2021/03/19 08:59:34;;;;;;;;;;;21.10;99.90;;;;;;5005710;28;19917;-80
2021/03/19 09:02:24;;;;;;;;;;;21.20;99.90;;;;;;5005901;28;19917;-80
2021/03/19 09:04:54;;;;;;;;;;;21.30;99.90;;;;;;5011715;28;19928;-82
2021/03/19 09:07:29;;;;;;;;;;;21.30;99.90;;;;;;5008417;28;19914;-81
2021/03/19 09:09:57;;;;;;;;;;;21.40;99.90;;;;;;5006721;28;19933;-81
2021/03/19 09:12:28;;;;;;;;;;;21.40;99.90;;;;;;5006358;28;19918;-81
2021/03/19 09:15:17;;;;;;;;;;;21.40;99.90;;;;;;5007267;28;19943;-81
2021/03/19 09:17:44;;;;;;;;;;;21.40;99.90;;;;;;5001081;28;19914;-80
2021/03/19 09:20:24;;;;;;;;;;;21.40;99.90;;;;;;5007396;28;19920;-81
2021/03/19 09:23:05;;;;;;;;;;;21.30;99.90;;;;;;5007499;28;20016;-81
2021/03/19 09:25:58;;;;;;;;;;;21.20;99.90;;;;;;5008239;28;19921;-81
2021/03/19 09:28:25;;;;;;;;;;;21.20;99.90;;;;;;5028476;28;19918;-82
2021/03/19 09:30:52;;;;;;;;;;;21.20;99.90;;;;;;5007531;28;20339;-81
2021/03/19 09:33:48;;;;;;;;;;;21.20;99.90;;;;;;5000846;28;19953;-81
2021/03/19 09:36:33;;;;;;;;;;;21.20;99.90;;;;;;4978528;28;20288;-81
2021/03/19 09:38:59;;;;;;;;;;;21.20;99.90;;;;;;5004765;28;19920;-81
2021/03/19 09:41:44;;;;;;;;;;;21.20;99.90;;;;;;5006477;28;19914;-81
2021/03/19 09:44:37;;;;;;;;;;;21.20;99.90;;;;;;5007074;28;19957;-81
2021/03/19 09:47:04;;;;;;;;;;;21.10;99.90;;;;;;4988118;28;20279;-81
2021/03/19 09:52:34;;;;;;;;;;;21.20;99.90;;;;;;5006756;28;19920;-80
2021/03/19 09:55:01;;;;;;;;;;;21.10;99.90;;;;;;4992475;28;19921;-81
2021/03/19 09:57:29;;;;;;;;;;;21.20;99.90;;;;;;4980574;28;19960;-82
2021/03/19 09:59:58;;;;;;;;;;;21.20;99.90;;;;;;5007051;28;19909;-82
2021/03/19 10:02:27;;;;;;;;;;;21.20;99.90;;;;;;5006561;28;19925;-83
2021/03/19 10:05:05;;;;;;;;;;;21.20;99.90;;;;;;5006464;28;20030;-81
2021/03/19 10:07:32;;;;;;;;;;;21.20;99.90;;;;;;4989985;28;19925;-80
2021/03/19 10:09:59;;;;;;;;;;;21.20;99.90;;;;;;5080976;28;20355;-82
2021/03/19 10:12:31;;;;;;;;;;;21.20;99.90;;;;;;5006784;28;20379;-80
2021/03/19 10:21:06;;;;;;;;;;;21.10;99.90;;;;;;5026227;28;19920;-80
2021/03/19 10:23:40;;;;;;;;;;;21.10;99.90;;;;;;5050770;28;20015;-79
2021/03/19 10:26:09;;;;;;;;;;;21.00;99.90;;;;;;5008603;28;20000;-79
2021/03/19 10:28:37;;;;;;;;;;;21.00;99.90;;;;;;4999313;28;20299;-80
2021/03/19 10:31:04;;;;;;;;;;;20.90;99.90;;;;;;5011286;28;20363;-79
2021/03/19 10:33:37;;;;;;;;;;;20.80;99.90;;;;;;5008761;28;19920;-80
2021/03/19 10:36:03;;;;;;;;;;;20.70;99.90;;;;;;5009315;28;20062;-80
2021/03/19 10:38:34;;;;;;;;;;;20.40;99.90;;;;;;5010536;28;20420;-82
2021/03/19 10:41:23;;;;;;;;;;;20.10;99.90;;;;;;5008538;28;19994;-82
2021/03/19 10:44:02;;;;;;;;;;;19.70;99.90;;;;;;4993968;28;20368;-80
2021/03/19 10:46:40;;;;;;;;;;;19.40;99.90;;;;;;4998653;28;19921;-82
2021/03/19 10:49:19;;;;;;;;;;;19.40;99.90;;;;;;5010479;28;20402;-80
2021/03/19 10:51:51;;;;;;;;;;;19.20;99.90;;;;;;5009536;28;19957;-80
2021/03/19 10:54:27;;;;;;;;;;;19.20;99.90;;;;;;5009269;28;19921;-81
2021/03/19 10:56:55;;;;;;;;;;;19.10;99.90;;;;;;5010003;28;20360;-79
2021/03/19 10:59:31;;;;;;;;;;;19.00;99.90;;;;;;4998092;28;19921;-80
2021/03/19 11:02:24;;;;;;;;;;;19.00;99.90;;;;;;5009624;28;19909;-79
2021/03/19 11:04:59;;;;;;;;;;;18.90;99.90;;;;;;5006679;28;20414;-80
2021/03/19 11:07:26;;;;;;;;;;;19.00;99.90;;;;;;4993983;28;19913;-81
2021/03/19 11:10:05;;;;;;;;;;;19.00;99.90;;;;;;5010194;28;19956;-82
2021/03/19 11:12:50;;;;;;;;;;;19.10;99.90;;;;;;4991422;28;19956;-80
2021/03/19 11:15:29;;;;;;;;;;;19.20;99.90;;;;;;5028432;28;19913;-82
2021/03/19 11:18:15;;;;;;;;;;;19.30;99.90;;;;;;5009270;28;19917;-83
2021/03/19 11:20:43;;;;;;;;;;;19.40;99.90;;;;;;5007839;28;19924;-80
2021/03/19 11:23:19;;;;;;;;;;;19.40;99.90;;;;;;5009473;28;19975;-81
2021/03/19 11:28:50;;;;;;;;;;;19.40;99.90;;;;;;5001429;28;20375;-79
2021/03/19 11:31:22;;;;;;;;;;;19.50;99.90;;;;;;5010668;28;20275;-81
2021/03/19 11:34:27;;;;;;;;;;;19.50;99.90;;;;;;5076381;28;19910;-82
2021/03/19 11:37:02;;;;;;;;;;;19.50;99.90;;;;;;5077468;28;19983;-79
2021/03/19 11:39:37;;;;;;;;;;;19.60;99.90;;;;;;4992273;28;19910;-79
2021/03/19 11:42:05;;;;;;;;;;;19.60;99.90;;;;;;4998193;28;19920;-81
2021/03/19 11:44:36;;;;;;;;;;;19.60;99.90;;;;;;5010592;28;20287;-82
2021/03/19 11:47:27;;;;;;;;;;;19.70;99.90;;;;;;5011981;28;19924;-81
2021/03/19 11:50:03;;;;;;;;;;;19.70;99.90;;;;;;4998056;28;20390;-80
2021/03/19 11:52:30;;;;;;;;;;;19.70;99.90;;;;;;5015468;28;20428;-81
2021/03/19 11:54:57;;;;;;;;;;;19.70;99.90;;;;;;5010768;28;19921;-81
2021/03/19 11:57:23;;;;;;;;;;;19.70;99.90;;;;;;5010948;28;19913;-82
2021/03/19 11:59:50;;;;;;;;;;;19.70;99.90;;;;;;5011109;28;19910;-82
2021/03/19 12:02:34;;;;;;;;;;;19.70;99.90;;;;;;5012290;28;20005;-79
2021/03/19 12:05:00;;;;;;;;;;;19.80;99.90;;;;;;5011289;28;19914;-81
2021/03/19 12:07:28;;;;;;;;;;;19.90;99.90;;;;;;5011199;28;19914;-82
2021/03/19 12:09:55;;;;;;;;;;;20.00;99.90;;;;;;4996102;28;20436;-81
2021/03/19 12:12:24;;;;;;;;;;;20.00;99.90;;;;;;5011897;28;20382;-82
2021/03/19 12:14:53;;;;;;;;;;;19.90;99.90;;;;;;5011131;28;19917;-80
2021/03/19 12:17:22;;;;;;;;;;;20.00;99.90;;;;;;5010388;28;20022;-79
2021/03/19 12:19:49;;;;;;;;;;;20.00;99.90;;;;;;5011064;28;20004;-78
2021/03/19 12:22:17;;;;;;;;;;;20.00;99.90;;;;;;5009489;28;19925;-78
2021/03/19 12:24:44;;;;;;;;;;;20.00;99.90;;;;;;5010520;28;19914;-86
2021/03/19 12:27:13;;;;;;;;;;;20.00;99.90;;;;;;4993195;28;19909;-83
2021/03/19 12:29:40;;;;;;;;;;;20.00;99.90;;;;;;5008881;28;19958;-80
2021/03/19 12:32:09;;;;;;;;;;;20.10;99.90;;;;;;5009523;28;20314;-79
2021/03/19 12:34:36;;;;;;;;;;;20.10;99.90;;;;;;5010886;28;20005;-81
2021/03/19 12:37:06;;;;;;;;;;;20.10;99.90;;;;;;4991872;28;19921;-84
2021/03/19 12:39:32;;;;;;;;;;;20.10;99.90;;;;;;5016111;28;20415;-80
2021/03/19 12:41:59;;;;;;;;;;;20.20;99.90;;;;;;5006567;28;19921;-77
2021/03/19 12:44:45;;;;;;;;;;;20.20;99.90;;;;;;5032519;28;19941;-77
2021/03/19 12:47:12;;;;;;;;;;;20.20;99.90;;;;;;5011034;28;19910;-79
2021/03/19 12:49:38;;;;;;;;;;;20.30;99.90;;;;;;5010963;28;19910;-80
2021/03/19 12:55:09;;;;;;;;;;;20.40;99.90;;;;;;5005560;28;19936;-78
2021/03/19 12:57:40;;;;;;;;;;;20.40;99.90;;;;;;5010659;28;19913;-83
2021/03/19 13:00:10;;;;;;;;;;;20.30;99.90;;;;;;5013077;28;19914;-85
2021/03/19 13:02:36;;;;;;;;;;;20.00;99.90;;;;;;5006831;28;19921;-83
2021/03/19 13:05:05;;;;;;;;;;;19.90;99.90;;;;;;5027495;28;19980;-83
2021/03/19 13:07:33;;;;;;;;;;;19.70;99.90;;;;;;5026679;28;19999;-80
2021/03/19 13:10:02;;;;;;;;;;;19.60;99.90;;;;;;5032800;27;19909;-77
2021/03/19 13:12:35;;;;;;;;;;;19.40;99.90;;;;;;5017762;28;19918;-80
2021/03/19 13:15:02;;;;;;;;;;;19.50;99.90;;;;;;5007985;28;19975;-83
2021/03/19 13:17:28;;;;;;;;;;;19.50;99.90;;;;;;5011540;28;19909;-81
2021/03/19 13:19:55;;;;;;;;;;;19.60;99.90;;;;;;5011486;28;19952;-79
2021/03/19 13:22:23;;;;;;;;;;;19.60;99.90;;;;;;5010099;28;20621;-79
2021/03/19 13:24:49;;;;;;;;;;;19.60;99.90;;;;;;5010538;28;19924;-87
2021/03/19 13:27:16;;;;;;;;;;;19.60;99.90;;;;;;5011354;28;19917;-77
2021/03/19 13:29:46;;;;;;;;;;;19.60;99.90;;;;;;4976435;28;20291;-78
2021/03/19 13:32:13;;;;;;;;;;;19.70;99.90;;;;;;4998782;28;19995;-77
2021/03/19 13:34:41;;;;;;;;;;;19.70;99.90;;;;;;5008817;28;19917;-79
2021/03/19 13:37:07;;;;;;;;;;;19.80;99.90;;;;;;5065604;28;19912;-77
2021/03/19 13:39:35;;;;;;;;;;;19.80;99.90;;;;;;5112556;28;19930;-78
2021/03/19 13:42:07;;;;;;;;;;;19.90;99.90;;;;;;5091036;28;19912;-78
2021/03/19 13:44:37;;;;;;;;;;;19.90;99.90;;;;;;5010226;28;19920;-78
2021/03/19 13:47:04;;;;;;;;;;;19.90;99.90;;;;;;5024800;28;19910;-78
2021/03/19 13:49:32;;;;;;;;;;;20.10;99.90;;;;;;5011221;28;19967;-79
2021/03/19 13:51:59;;;;;;;;;;;20.10;99.90;;;;;;5002924;28;19940;-79
2021/03/19 13:54:26;;;;;;;;;;;20.10;99.90;;;;;;5006876;28;20360;-77
2021/03/19 13:57:03;;;;;;;;;;;20.20;99.90;;;;;;4997414;28;20286;-78
2021/03/19 13:59:30;;;;;;;;;;;20.20;99.90;;;;;;5013644;28;19913;-80
2021/03/19 14:01:57;;;;;;;;;;;20.30;99.90;;;;;;5003350;28;19918;-78
2021/03/19 14:04:24;;;;;;;;;;;20.30;99.90;;;;;;5014601;28;19973;-81
2021/03/19 14:06:51;;;;;;;;;;;20.30;99.90;;;;;;5014644;28;19918;-77
2021/03/19 14:09:18;;;;;;;;;;;20.40;99.90;;;;;;4995855;28;20008;-79
2021/03/19 14:11:46;;;;;;;;;;;20.30;99.90;;;;;;4996941;28;19924;-78
2021/03/19 14:14:13;;;;;;;;;;;20.30;99.90;;;;;;4995646;28;19939;-78
2021/03/19 14:16:41;;;;;;;;;;;20.30;99.90;;;;;;5012422;28;20343;-85
2021/03/19 14:19:08;;;;;;;;;;;20.30;99.90;;;;;;5013198;28;19909;-78
2021/03/19 14:21:49;;;;;;;;;;;20.30;99.90;;;;;;5005290;28;20446;-79
2021/03/19 14:24:16;;;;;;;;;;;20.30;99.90;;;;;;5016119;28;20372;-78
2021/03/19 14:26:43;;;;;;;;;;;20.30;99.90;;;;;;5012984;28;19918;-77
2021/03/19 14:29:13;;;;;;;;;;;20.30;99.90;;;;;;5013284;28;19916;-78
2021/03/19 14:31:42;;;;;;;;;;;20.20;99.90;;;;;;5013004;28;20201;-78
2021/03/19 14:34:08;;;;;;;;;;;20.10;99.90;;;;;;5012896;28;19914;-82
2021/03/19 14:36:35;;;;;;;;;;;20.00;99.90;;;;;;5012797;28;19953;-79
2021/03/19 14:39:03;;;;;;;;;;;20.00;99.90;;;;;;4995094;28;19910;-78
2021/03/19 14:41:31;;;;;;;;;;;19.90;99.90;;;;;;5013413;28;20360;-79
2021/03/19 14:43:58;;;;;;;;;;;19.80;99.90;;;;;;5010452;28;20371;-80
2021/03/19 14:46:26;;;;;;;;;;;19.70;99.90;;;;;;5012851;28;19953;-81
2021/03/19 14:48:55;;;;;;;;;;;19.70;99.90;;;;;;5013461;28;19968;-79
2021/03/19 14:51:21;;;;;;;;;;;19.70;99.90;;;;;;5032023;28;19945;-80
2021/03/19 14:53:52;;;;;;;;;;;19.70;99.90;;;;;;5011946;28;19914;-80
2021/03/19 14:56:23;;;;;;;;;;;19.70;99.90;;;;;;5011207;28;19909;-79
2021/03/19 14:58:49;;;;;;;;;;;19.70;99.90;;;;;;5012632;28;19964;-78
2021/03/19 15:01:16;;;;;;;;;;;19.70;99.90;;;;;;5012847;28;20367;-80